Maryville, TN

10:08 PM EST on February 10, 2016 (GMT -0500)
TOM'S PLACE MARYVILLE TN | | Change Station
CLOSE
Current Station
Personal Weather Station
Location: Maryville, TN
Elevation: 988 ft
Nearby Weather Stations

Elev 988 ft 35.76 °N, 83.95 °W | Updated 3 minutes ago

Overcast
Overcast
26.8 °F
Feels Like 23 °F
N
3.2
Wind Variable Wind from WSW

Today
High -- | Low -- °F
--% Chance of Precip.
Yesterday
High -- | Low -- °F
Precip. -- in
Pressure 30.19 in
Visibility 10.0 miles
Clouds Scattered Clouds 6500 ft
Overcast 11000 ft
Windchill 23 °F
Dew Point 14 °F
Humidity 57%
Rainfall 0.00 in
Snow Depth Not available.
7:28 AM 6:11 PM
Waxing Crescent, 9% visible
METAR KTYS 110253Z 27011KT 10SM SCT065 OVC110 M03/M13 A3016 RMK AO2 SLP223 T10331128 53018
Pressure 30.19 in
Visibility 10.0 miles
Clouds Scattered Clouds 6500 ft
Overcast 11000 ft
Windchill 23 °F
Dew Point 14 °F
Humidity 57%
Rainfall 0.00 in
Snow Depth Not available.
7:28 AM 6:11 PM
Waxing Crescent, 9% visible
METAR KTYS 110253Z 27011KT 10SM SCT065 OVC110 M03/M13 A3016 RMK AO2 SLP223 T10331128 53018

10-Day Weather Forecast

Almanac

Astronomy

Feb. 10, 2016 Rise Set
Actual Time
Civil Twilight
Nautical Twilight
Astronomical Twilight
Moon
Length of Visible Light
Length of Day
Tomorrow will be .
, % of the Moon is Illuminated

Today's Extremes

State Highs State Lows

Community

WunderPhotos

Upload Photos

1,891,994 photos uploaded!

WunderBlog® & News

Nearby

Air Quality

  Air Quality AQ Index Pollutant
Not available.

Snow Depth

Station Depth Elevation

Earthquake Activity

City Distance Mag. Time & Date
Minimum magnitude displayed is 2.5.

Coastal Water Temperatures

Place Temperature

Stations

Nearby Weather Stations

Station Location Temp. Windchill Dew Point Humidity Wind Precip. Elev Updated Type
                   

Watches & Warnings

There are currently no watches in effect.